createdAt,value
2019-04-26T00:02:40.789Z,0.83
2019-04-26T00:05:16.414Z,1.50
2019-04-26T00:07:46.102Z,0.90
2019-04-26T00:10:25.567Z,0.73
2019-04-26T00:13:02.271Z,0.80
2019-04-26T00:16:06.029Z,1.00
2019-04-26T00:18:35.631Z,0.90
2019-04-26T00:21:05.485Z,0.70
2019-04-26T00:23:34.953Z,1.00
2019-04-26T00:26:05.030Z,1.00
2019-04-26T00:28:34.497Z,0.87
2019-04-26T00:31:03.968Z,0.97
2019-04-26T00:33:33.477Z,1.03
2019-04-26T00:36:02.915Z,1.20
2019-04-26T00:38:32.403Z,1.30
2019-04-26T00:41:02.367Z,0.87
2019-04-26T00:43:31.875Z,0.93
2019-04-26T00:46:04.417Z,1.00
2019-04-26T00:48:34.826Z,0.90
2019-04-26T00:51:06.610Z,0.90
2019-04-26T00:53:37.099Z,0.97
2019-04-26T00:56:07.203Z,1.20
2019-04-26T00:58:37.596Z,1.00
2019-04-26T01:01:07.085Z,0.93
2019-04-26T01:03:36.538Z,0.93
2019-04-26T01:06:08.503Z,0.90
2019-04-26T01:08:37.952Z,1.17
2019-04-26T01:11:07.420Z,0.73
2019-04-26T01:13:36.916Z,0.90
2019-04-26T01:16:06.382Z,0.90
2019-04-26T01:18:36.943Z,1.10
2019-04-26T01:21:09.230Z,1.13
2019-04-26T01:23:40.543Z,1.00
2019-04-26T01:26:19.432Z,1.20
2019-04-26T01:29:02.527Z,1.00
2019-04-26T01:31:32.955Z,1.10
2019-04-26T01:34:02.649Z,1.40
2019-04-26T01:36:33.307Z,1.40
2019-04-26T01:39:12.330Z,1.10
2019-04-26T01:41:47.027Z,1.17
2019-04-26T01:44:34.591Z,1.30
2019-04-26T01:47:04.210Z,1.13
2019-04-26T01:49:33.724Z,1.40
2019-04-26T01:52:08.806Z,1.50
2019-04-26T01:54:42.089Z,1.30
2019-04-26T01:57:13.861Z,1.20
2019-04-26T01:59:47.501Z,1.20
2019-04-26T02:02:48.034Z,1.10
2019-04-26T02:05:25.917Z,1.20
2019-04-26T02:07:56.603Z,1.20
2019-04-26T02:10:26.983Z,1.40
2019-04-26T02:12:56.872Z,1.30
2019-04-26T02:15:31.167Z,1.10
2019-04-26T02:18:01.442Z,1.40
2019-04-26T02:21:13.410Z,1.80
2019-04-26T02:23:49.066Z,1.30
2019-04-26T02:26:35.267Z,1.40
2019-04-26T02:29:07.556Z,1.30
2019-04-26T02:31:38.392Z,1.40
2019-04-26T02:34:09.705Z,1.53
2019-04-26T02:36:56.081Z,1.57
2019-04-26T02:39:19.440Z,2.03
2019-04-26T02:41:51.226Z,1.60
2019-04-26T02:44:24.761Z,1.90
2019-04-26T02:47:18.791Z,1.70
2019-04-26T02:49:51.857Z,2.27
2019-04-26T02:52:34.102Z,2.03
2019-04-26T02:55:10.971Z,2.00
2019-04-26T02:57:49.467Z,2.30
2019-04-26T03:00:21.035Z,2.50
2019-04-26T03:02:58.624Z,2.50
2019-04-26T03:05:33.351Z,2.93
2019-04-26T03:08:07.269Z,3.07
2019-04-26T03:10:45.566Z,3.00
2019-04-26T03:13:30.759Z,2.47
2019-04-26T03:16:15.382Z,2.90
2019-04-26T03:19:02.940Z,3.03
2019-04-26T03:21:46.995Z,3.63
2019-04-26T03:24:25.800Z,3.50
2019-04-26T03:27:16.287Z,3.97
2019-04-26T03:30:19.362Z,4.13
2019-04-26T03:33:11.958Z,3.87
2019-04-26T03:36:16.896Z,4.90
2019-04-26T03:39:36.589Z,5.10
2019-04-26T03:42:35.186Z,4.23
2019-04-26T03:45:16.151Z,4.83
2019-04-26T03:48:04.185Z,4.70
2019-04-26T03:50:41.086Z,4.40
2019-04-26T03:53:29.929Z,4.80
2019-04-26T03:56:50.661Z,5.50
2019-04-26T03:59:52.115Z,5.60
2019-04-26T04:03:00.879Z,5.70
2019-04-26T04:05:43.684Z,5.53
2019-04-26T04:08:19.255Z,6.53
2019-04-26T04:10:55.561Z,6.20
2019-04-26T04:13:51.227Z,6.30
2019-04-26T04:16:46.924Z,7.03
2019-04-26T04:19:35.472Z,7.23
2019-04-26T04:22:08.872Z,6.80
2019-04-26T04:24:53.545Z,6.23
2019-04-26T04:27:32.617Z,6.40
2019-04-26T04:30:16.997Z,7.63
2019-04-26T04:33:08.643Z,7.30
2019-04-26T04:35:46.095Z,7.43
2019-04-26T04:38:42.726Z,7.87
2019-04-26T04:41:29.489Z,7.90
2019-04-26T04:44:14.833Z,8.33
2019-04-26T04:47:23.693Z,8.10
2019-04-26T04:50:26.535Z,8.50
2019-04-26T04:53:34.177Z,9.20
2019-04-26T04:56:18.004Z,10.03
2019-04-26T04:58:52.705Z,11.17
2019-04-26T05:02:02.099Z,11.03
2019-04-26T05:05:10.830Z,10.33
2019-04-26T05:08:05.215Z,10.93
2019-04-26T05:10:54.127Z,11.10
2019-04-26T05:13:42.087Z,11.73
2019-04-26T05:16:34.185Z,10.67
2019-04-26T05:19:44.228Z,11.17
2019-04-26T05:23:00.859Z,11.38
2019-04-26T05:26:26.126Z,11.27
2019-04-26T05:29:19.281Z,11.70
2019-04-26T05:32:03.960Z,12.23
2019-04-26T05:34:47.492Z,12.70
2019-04-26T05:37:53.063Z,13.23
2019-04-26T05:40:51.506Z,13.13
2019-04-26T05:44:02.835Z,13.43
2019-04-26T05:47:33.572Z,13.97
2019-04-26T05:51:20.961Z,13.37
2019-04-26T05:54:45.071Z,13.20
2019-04-26T05:58:02.971Z,12.73
2019-04-26T06:01:18.523Z,12.93
2019-04-26T06:04:39.131Z,13.27
2019-04-26T06:07:30.456Z,13.43
2019-04-26T06:10:37.951Z,13.37
2019-04-26T06:13:34.740Z,11.67
2019-04-26T06:16:21.244Z,11.27
2019-04-26T06:19:21.144Z,11.57
2019-04-26T06:22:08.564Z,11.33
2019-04-26T06:25:05.779Z,11.13
2019-04-26T06:28:01.053Z,11.33
2019-04-26T06:31:06.290Z,11.27
2019-04-26T06:33:43.585Z,10.73
2019-04-26T06:36:20.910Z,10.60
2019-04-26T06:39:20.587Z,10.37
2019-04-26T06:42:29.867Z,10.57
2019-04-26T06:45:40.641Z,10.50
2019-04-26T06:48:39.421Z,10.57
2019-04-26T06:51:24.617Z,10.50
2019-04-26T06:54:13.277Z,10.50
2019-04-26T06:57:38.585Z,10.03
2019-04-26T07:00:31.428Z,9.67
2019-04-26T07:03:27.873Z,9.90
2019-04-26T07:06:02.423Z,10.07
2019-04-26T07:09:09.530Z,10.07
2019-04-26T07:12:31.362Z,11.00
2019-04-26T07:15:28.771Z,10.00
2019-04-26T07:18:26.186Z,9.60
2019-04-26T07:21:22.263Z,9.10
2019-04-26T07:24:11.597Z,9.93
2019-04-26T07:27:17.680Z,10.00
2019-04-26T07:30:12.436Z,10.07
2019-04-26T07:33:41.211Z,9.97
2019-04-26T07:36:36.490Z,9.80
2019-04-26T07:39:29.092Z,10.37
2019-04-26T07:42:45.786Z,10.13
2019-04-26T07:45:38.915Z,9.67
2019-04-26T07:48:38.853Z,9.97
2019-04-26T07:51:44.953Z,10.20
2019-04-26T07:55:07.192Z,8.73
2019-04-26T07:58:19.750Z,9.30
2019-04-26T08:00:59.722Z,8.97
2019-04-26T08:03:40.192Z,8.67
2019-04-26T08:06:25.117Z,8.77
2019-04-26T08:09:07.605Z,7.90
2019-04-26T08:11:45.161Z,6.90
2019-04-26T08:14:21.986Z,7.43
2019-04-26T08:17:36.332Z,7.40
2019-04-26T08:20:37.989Z,7.20
2019-04-26T08:23:21.683Z,7.50
2019-04-26T08:25:42.695Z,7.40
2019-04-26T08:28:15.067Z,6.80
2019-04-26T08:30:48.368Z,7.23
2019-04-26T08:33:23.700Z,7.77
2019-04-26T08:35:56.769Z,7.30
2019-04-26T08:38:28.232Z,8.10
2019-04-26T08:41:00.479Z,7.73
2019-04-26T08:44:09.829Z,8.30
2019-04-26T08:47:06.093Z,8.40
2019-04-26T08:49:55.328Z,8.70
2019-04-26T08:52:29.721Z,8.53
2019-04-26T08:55:01.382Z,8.73
2019-04-26T08:57:33.979Z,8.37
2019-04-26T09:00:06.603Z,8.10
2019-04-26T09:03:11.828Z,8.97
2019-04-26T09:06:00.907Z,8.50
2019-04-26T09:08:35.001Z,9.10
2019-04-26T09:11:07.248Z,9.50
2019-04-26T09:13:40.713Z,9.47
2019-04-26T09:16:19.835Z,10.30
2019-04-26T09:18:54.129Z,8.33
2019-04-26T09:21:31.286Z,8.53
2019-04-26T09:24:26.657Z,8.60
2019-04-26T09:27:10.774Z,9.03
2019-04-26T09:30:00.557Z,8.17
2019-04-26T09:32:48.000Z,8.97
2019-04-26T09:35:18.523Z,9.53
2019-04-26T09:37:48.005Z,8.77
2019-04-26T09:40:21.612Z,8.53
2019-04-26T09:43:14.846Z,8.83
2019-04-26T09:46:06.478Z,8.70
2019-04-26T09:48:57.191Z,8.47
2019-04-26T09:51:26.722Z,9.83
2019-04-26T09:53:56.189Z,8.77
2019-04-26T09:56:25.673Z,8.40
2019-04-26T09:58:55.157Z,7.97
2019-04-26T10:01:25.993Z,8.20
2019-04-26T10:03:55.546Z,8.17
2019-04-26T10:06:26.178Z,8.10
2019-04-26T10:08:55.917Z,7.77
2019-04-26T10:11:27.925Z,8.83
2019-04-26T10:14:02.799Z,8.07
2019-04-26T10:16:37.767Z,8.20
2019-04-26T10:19:21.882Z,8.03
2019-04-26T10:21:51.371Z,8.10
2019-04-26T10:24:20.850Z,8.27
2019-04-26T10:26:50.340Z,8.43
2019-04-26T10:29:21.665Z,8.47
2019-04-26T10:31:51.873Z,8.20
2019-04-26T10:34:22.077Z,8.60
2019-04-26T10:36:51.538Z,8.63
2019-04-26T10:39:22.232Z,8.90
2019-04-26T10:41:51.727Z,8.27
2019-04-26T10:44:21.298Z,8.00
2019-04-26T10:46:55.646Z,8.30
2019-04-26T10:49:48.070Z,8.17
2019-04-26T10:52:27.319Z,7.80
2019-04-26T10:55:12.236Z,7.70
2019-04-26T10:57:41.719Z,8.03
2019-04-26T11:00:19.045Z,7.40
2019-04-26T11:02:48.593Z,7.17
2019-04-26T11:05:19.260Z,7.80
2019-04-26T11:07:48.836Z,7.77
2019-04-26T11:10:18.508Z,7.83
2019-04-26T11:12:47.966Z,7.00
2019-04-26T11:15:17.562Z,6.90
2019-04-26T11:17:49.886Z,7.03
2019-04-26T11:20:18.205Z,7.37
2019-04-26T11:22:47.688Z,8.10
2019-04-26T11:25:17.187Z,7.87
2019-04-26T11:27:48.551Z,7.77
2019-04-26T11:30:20.944Z,7.63
2019-04-26T11:32:49.949Z,7.70
2019-04-26T11:35:19.466Z,7.80
2019-04-26T11:37:50.756Z,8.30
2019-04-26T11:40:20.165Z,7.97
2019-04-26T11:42:49.637Z,7.13
2019-04-26T11:45:19.265Z,7.47
2019-04-26T11:47:55.898Z,7.50
2019-04-26T11:50:20.046Z,7.50
2019-04-26T11:52:49.511Z,7.90
2019-04-26T11:55:18.980Z,7.93
2019-04-26T11:57:49.179Z,7.97
2019-04-26T12:00:33.973Z,8.40
2019-04-26T12:03:03.481Z,7.83
2019-04-26T12:05:50.620Z,7.93
2019-04-26T12:08:25.256Z,7.83
2019-04-26T12:10:54.743Z,7.83
2019-04-26T12:13:25.259Z,8.37
2019-04-26T12:15:59.205Z,8.97
2019-04-26T12:18:28.804Z,9.03
2019-04-26T12:21:01.082Z,9.53
2019-04-26T12:23:29.449Z,10.83
2019-04-26T12:25:58.913Z,10.00
2019-04-26T12:28:28.517Z,11.43
2019-04-26T12:30:58.422Z,10.90
2019-04-26T12:33:29.126Z,10.57
2019-04-26T12:35:58.741Z,10.33
2019-04-26T12:38:29.934Z,10.63
2019-04-26T12:40:59.825Z,10.67
2019-04-26T12:43:29.297Z,10.73
2019-04-26T12:46:17.716Z,10.37
2019-04-26T12:48:49.935Z,10.27
2019-04-26T12:51:18.421Z,9.43
2019-04-26T12:53:47.872Z,10.07
2019-04-26T12:56:17.377Z,10.60
2019-04-26T12:58:49.993Z,9.43
2019-04-26T13:01:18.127Z,10.03
2019-04-26T13:04:03.974Z,10.10
2019-04-26T13:06:34.781Z,9.90
2019-04-26T13:09:05.189Z,9.57
2019-04-26T13:11:52.764Z,9.30
2019-04-26T13:14:42.931Z,9.83
2019-04-26T13:17:15.419Z,10.20
2019-04-26T13:19:44.913Z,8.97
2019-04-26T13:22:14.390Z,9.33
2019-04-26T13:24:43.862Z,9.50
2019-04-26T13:27:13.338Z,9.13
2019-04-26T13:29:42.829Z,10.17
2019-04-26T13:32:12.323Z,10.37
2019-04-26T13:34:41.797Z,9.37
2019-04-26T13:37:11.290Z,8.77
2019-04-26T13:39:40.788Z,10.10
2019-04-26T13:42:13.627Z,9.90
2019-04-26T13:44:59.253Z,10.47
2019-04-26T13:47:47.660Z,10.60
2019-04-26T13:50:26.617Z,10.10
2019-04-26T13:52:55.829Z,10.57
2019-04-26T13:55:29.059Z,9.83
2019-04-26T13:57:56.468Z,10.13
2019-04-26T14:00:29.006Z,10.40
2019-04-26T14:02:58.521Z,10.80
2019-04-26T14:05:29.727Z,10.27
2019-04-26T14:07:59.231Z,10.57
2019-04-26T14:10:28.699Z,10.70
2019-04-26T14:12:58.191Z,10.70
2019-04-26T14:15:27.782Z,11.23
2019-04-26T14:18:00.312Z,11.23
2019-04-26T14:20:28.378Z,11.50
2019-04-26T14:23:11.427Z,9.97
2019-04-26T14:25:55.592Z,11.23
2019-04-26T14:28:25.264Z,10.90
2019-04-26T14:30:54.981Z,10.63
2019-04-26T14:33:27.115Z,9.93
2019-04-26T14:35:55.564Z,10.63
2019-04-26T14:38:27.951Z,10.53
2019-04-26T14:41:03.888Z,10.53
2019-04-26T14:43:40.038Z,10.90
2019-04-26T14:45:58.638Z,11.30
2019-04-26T14:48:35.936Z,12.13
2019-04-26T14:51:07.746Z,12.00
2019-04-26T14:53:35.781Z,11.83
2019-04-26T14:56:03.189Z,12.93
2019-04-26T14:58:33.744Z,12.10
2019-04-26T15:01:05.042Z,12.30
2019-04-26T15:03:45.075Z,12.30
2019-04-26T15:06:23.812Z,11.57
2019-04-26T15:08:53.447Z,12.20
2019-04-26T15:11:23.099Z,12.23
2019-04-26T15:13:52.641Z,11.50
2019-04-26T15:16:24.330Z,12.00
2019-04-26T15:18:53.279Z,10.93
2019-04-26T15:21:22.892Z,12.27
2019-04-26T15:23:55.308Z,11.73
2019-04-26T15:26:29.597Z,10.90
2019-04-26T15:28:54.691Z,12.13
2019-04-26T15:31:24.978Z,12.23
2019-04-26T15:33:54.621Z,12.23
2019-04-26T15:36:24.104Z,11.53
2019-04-26T15:38:53.601Z,12.43
2019-04-26T15:41:51.562Z,11.90
2019-04-26T15:44:36.979Z,13.07
2019-04-26T15:47:23.931Z,12.17
2019-04-26T15:50:09.844Z,12.33
2019-04-26T15:52:39.215Z,12.53
2019-04-26T15:55:08.804Z,12.10
2019-04-26T15:57:38.301Z,11.77
2019-04-26T16:00:08.090Z,12.13
2019-04-26T16:02:37.586Z,11.37
2019-04-26T16:05:07.289Z,11.70
2019-04-26T16:07:36.762Z,11.33
2019-04-26T16:10:06.406Z,11.20
2019-04-26T16:12:35.916Z,10.43
2019-04-26T16:15:06.485Z,11.27
2019-04-26T16:17:40.083Z,11.63
2019-04-26T16:20:08.053Z,10.80
2019-04-26T16:22:37.555Z,10.70
2019-04-26T16:25:07.206Z,10.40
2019-04-26T16:27:36.682Z,10.27
2019-04-26T16:30:32.177Z,10.80
2019-04-26T16:33:18.553Z,10.60
2019-04-26T16:35:48.013Z,11.40
2019-04-26T16:38:36.073Z,10.93
2019-04-26T16:41:06.606Z,11.70
2019-04-26T16:43:40.288Z,11.33
2019-04-26T16:46:12.574Z,11.37
2019-04-26T16:48:39.124Z,10.93
2019-04-26T16:51:08.951Z,11.53
2019-04-26T16:54:02.192Z,10.97
2019-04-26T16:56:09.762Z,10.63
2019-04-26T16:58:45.016Z,11.67
2019-04-26T17:01:11.568Z,11.30
2019-04-26T17:03:45.178Z,10.90
2019-04-26T17:06:14.290Z,11.57
2019-04-26T17:08:50.120Z,11.67
2019-04-26T17:11:14.939Z,12.13
2019-04-26T17:13:50.826Z,11.20
2019-04-26T17:16:15.521Z,11.50
2019-04-26T17:18:44.984Z,10.67
2019-04-26T17:21:17.495Z,11.47
2019-04-26T17:24:22.420Z,10.67
2019-04-26T17:27:00.881Z,11.80
2019-04-26T17:29:31.861Z,10.03
2019-04-26T17:32:02.543Z,12.10
2019-04-26T17:34:33.636Z,12.20
2019-04-26T17:37:07.972Z,12.53
2019-04-26T17:39:34.433Z,12.00
2019-04-26T17:42:03.929Z,12.60
2019-04-26T17:44:34.120Z,13.37
2019-04-26T17:47:03.927Z,12.83
2019-04-26T17:49:34.708Z,13.00
2019-04-26T17:52:04.657Z,11.07
2019-04-26T17:54:46.246Z,12.17
2019-04-26T17:57:08.860Z,11.83
2019-04-26T17:59:36.954Z,11.70
2019-04-26T18:02:19.692Z,11.77
2019-04-26T18:04:40.635Z,11.80
2019-04-26T18:07:34.711Z,12.00
2019-04-26T18:09:45.931Z,15.67
2019-04-26T18:12:11.902Z,15.07
2019-04-26T18:14:41.644Z,12.97
2019-04-26T18:17:26.054Z,13.80
2019-04-26T18:20:12.997Z,13.33
2019-04-26T18:23:05.532Z,13.10
2019-04-26T18:25:35.964Z,12.83
2019-04-26T18:28:08.742Z,13.23
2019-04-26T18:30:40.171Z,12.73
2019-04-26T18:33:07.733Z,12.43
2019-04-26T18:35:37.201Z,13.03
2019-04-26T18:38:08.620Z,12.93
2019-04-26T18:40:57.273Z,11.70
2019-04-26T18:43:12.427Z,13.23
2019-04-26T18:45:40.316Z,14.73
2019-04-26T18:48:09.804Z,13.67
2019-04-26T18:50:39.279Z,13.83
2019-04-26T18:53:30.538Z,16.20
2019-04-26T18:55:59.400Z,17.33
2019-04-26T18:58:30.337Z,28.40
2019-04-26T19:01:01.607Z,28.57
2019-04-26T19:03:33.682Z,27.47
2019-04-26T19:06:05.592Z,22.47
2019-04-26T19:08:45.785Z,19.80
2019-04-26T19:11:07.686Z,18.17
2019-04-26T19:14:02.204Z,18.80
2019-04-26T19:16:58.731Z,17.83
2019-04-26T19:19:34.556Z,14.67
2019-04-26T19:22:04.685Z,18.90
2019-04-26T19:24:34.169Z,28.30
2019-04-26T19:27:04.155Z,31.03
2019-04-26T19:29:36.128Z,26.30
2019-04-26T19:32:05.137Z,22.70
2019-04-26T19:34:34.627Z,19.00
2019-04-26T19:37:04.316Z,16.63
2019-04-26T19:39:35.656Z,16.03
2019-04-26T19:42:06.224Z,18.00
2019-04-26T19:44:35.894Z,18.03
2019-04-26T19:47:39.445Z,18.63
2019-04-26T19:50:48.970Z,24.30
2019-04-26T19:53:32.782Z,19.77
2019-04-26T19:56:27.494Z,20.77
2019-04-26T19:58:57.473Z,20.63
2019-04-26T20:01:26.719Z,19.27
2019-04-26T20:03:56.212Z,19.60
2019-04-26T20:06:26.919Z,18.50
2019-04-26T20:08:56.613Z,21.00
2019-04-26T20:11:26.112Z,21.43
2019-04-26T20:13:55.698Z,20.47
2019-04-26T20:16:25.991Z,20.60
2019-04-26T20:18:55.670Z,20.27
2019-04-26T20:21:25.949Z,34.57
2019-04-26T20:23:55.460Z,31.20
2019-04-26T20:26:24.935Z,24.50
2019-04-26T20:28:54.460Z,22.83
2019-04-26T20:31:37.541Z,21.50
2019-04-26T20:34:10.754Z,21.40
2019-04-26T20:36:41.689Z,21.83
2019-04-26T20:39:10.185Z,21.90
2019-04-26T20:41:39.661Z,22.37
2019-04-26T20:44:10.064Z,22.10
2019-04-26T20:46:39.740Z,21.90
2019-04-26T20:49:09.405Z,21.13
2019-04-26T20:51:40.753Z,21.27
2019-04-26T20:54:16.145Z,21.27
2019-04-26T20:56:42.176Z,21.43
2019-04-26T20:59:12.346Z,21.53
2019-04-26T21:01:43.602Z,21.77
2019-04-26T21:04:33.874Z,21.73
2019-04-26T21:06:44.212Z,21.37
2019-04-26T21:09:15.170Z,21.63
2019-04-26T21:11:44.652Z,22.23
2019-04-26T21:14:14.148Z,22.37
2019-04-26T21:16:49.277Z,22.67
2019-04-26T21:19:19.095Z,21.33
2019-04-26T21:21:48.486Z,23.17
2019-04-26T21:24:19.972Z,22.90
2019-04-26T21:27:10.711Z,23.37
2019-04-26T21:30:01.212Z,22.87
2019-04-26T21:33:08.056Z,21.50
2019-04-26T21:36:01.951Z,23.10
2019-04-26T21:38:49.280Z,23.23
2019-04-26T21:41:21.476Z,30.03
2019-04-26T21:43:50.949Z,27.30
2019-04-26T21:46:20.434Z,29.93
2019-04-26T21:48:49.942Z,28.23
2019-04-26T21:51:19.432Z,30.47
2019-04-26T21:53:49.044Z,27.37
2019-04-26T21:56:18.525Z,32.27
2019-04-26T21:58:47.995Z,33.10
2019-04-26T22:01:20.997Z,33.20
2019-04-26T22:03:54.406Z,30.73
2019-04-26T22:06:25.112Z,28.73
2019-04-26T22:09:02.765Z,26.77
2019-04-26T22:11:31.988Z,24.80
2019-04-26T22:14:05.989Z,23.43
2019-04-26T22:16:46.913Z,22.90
2019-04-26T22:19:35.329Z,22.70
2019-04-26T22:22:15.091Z,22.87
2019-04-26T22:24:43.906Z,24.10
2019-04-26T22:27:17.264Z,22.43
2019-04-26T22:29:47.542Z,23.97
2019-04-26T22:32:18.876Z,22.90
2019-04-26T22:34:46.891Z,26.20
2019-04-26T22:37:29.171Z,22.83
2019-04-26T22:39:47.496Z,22.60
2019-04-26T22:42:18.662Z,23.80
2019-04-26T22:44:54.021Z,23.80
2019-04-26T22:47:28.657Z,23.77
2019-04-26T22:49:58.146Z,23.03
2019-04-26T22:52:27.637Z,23.67
2019-04-26T22:54:57.108Z,24.13
2019-04-26T22:57:26.601Z,23.17
2019-04-26T22:59:56.078Z,22.83
2019-04-26T23:02:27.645Z,24.03
2019-04-26T23:05:00.490Z,24.20
2019-04-26T23:07:28.241Z,24.23
2019-04-26T23:09:57.700Z,24.33
2019-04-26T23:12:46.110Z,23.00
2019-04-26T23:15:49.881Z,24.10
2019-04-26T23:18:38.686Z,23.73
2019-04-26T23:21:14.934Z,21.53
2019-04-26T23:23:44.301Z,24.97
2019-04-26T23:26:14.497Z,24.60
2019-04-26T23:28:44.354Z,25.73
2019-04-26T23:31:13.805Z,27.50
2019-04-26T23:33:43.293Z,26.60
2019-04-26T23:36:13.592Z,27.17
2019-04-26T23:38:43.851Z,25.43
2019-04-26T23:41:14.215Z,26.47
2019-04-26T23:43:44.135Z,25.20
2019-04-26T23:46:14.697Z,25.33
2019-04-26T23:48:48.789Z,24.67
2019-04-26T23:51:15.432Z,23.97
2019-04-26T23:53:44.917Z,23.77
2019-04-26T23:56:21.696Z,24.57
2019-04-26T23:58:45.747Z,24.00
